createdAt,value
2018-11-06T00:00:43.244Z,99.90
2018-11-06T00:03:16.891Z,99.90
2018-11-06T00:05:45.099Z,99.90
2018-11-06T00:08:13.288Z,99.90
2018-11-06T00:10:41.490Z,99.90
2018-11-06T00:13:09.691Z,99.90
2018-11-06T00:15:37.867Z,99.90
2018-11-06T00:18:06.160Z,99.90
2018-11-06T00:20:34.356Z,99.90
2018-11-06T00:23:02.579Z,99.90
2018-11-06T00:25:30.776Z,99.90
2018-11-06T00:27:58.980Z,99.90
2018-11-06T00:30:27.176Z,99.90
2018-11-06T00:32:55.371Z,99.90
2018-11-06T00:35:23.580Z,99.90
2018-11-06T00:37:51.791Z,99.90
2018-11-06T00:40:20.004Z,99.90
2018-11-06T00:42:48.183Z,99.90
2018-11-06T00:45:17.541Z,99.90
2018-11-06T00:47:45.746Z,99.90
2018-11-06T00:50:14.291Z,99.90
2018-11-06T00:52:43.633Z,99.90
2018-11-06T00:55:11.973Z,99.90
2018-11-06T00:57:41.951Z,99.90
2018-11-06T01:00:12.252Z,99.90
2018-11-06T01:02:40.635Z,99.90
2018-11-06T01:05:09.960Z,99.90
2018-11-06T01:07:38.143Z,99.90
2018-11-06T01:10:07.552Z,99.90
2018-11-06T01:12:35.787Z,99.90
2018-11-06T01:15:04.567Z,99.90
2018-11-06T01:17:32.943Z,99.90
2018-11-06T01:20:01.137Z,99.90
2018-11-06T01:22:31.311Z,99.90
2018-11-06T01:25:00.777Z,99.90
2018-11-06T01:27:29.056Z,99.90
2018-11-06T01:29:57.282Z,99.90
2018-11-06T01:32:25.469Z,99.90
2018-11-06T01:34:53.692Z,99.90
2018-11-06T01:37:21.891Z,99.90
2018-11-06T01:39:50.091Z,99.90
2018-11-06T01:42:18.288Z,99.90
2018-11-06T01:44:46.611Z,99.90
2018-11-06T01:47:14.805Z,99.90
2018-11-06T01:49:42.995Z,99.90
2018-11-06T01:52:11.192Z,99.90
2018-11-06T01:54:39.458Z,99.90
2018-11-06T01:57:07.950Z,99.90
2018-11-06T01:59:36.163Z,99.90
2018-11-06T02:02:04.364Z,99.90
2018-11-06T02:04:32.565Z,99.90
2018-11-06T02:07:01.121Z,99.90
2018-11-06T02:09:29.311Z,99.90
2018-11-06T02:11:57.527Z,99.90
2018-11-06T02:14:25.723Z,99.90
2018-11-06T02:16:53.949Z,99.90
2018-11-06T02:19:22.155Z,99.90
2018-11-06T02:21:50.395Z,99.90
2018-11-06T02:24:18.620Z,99.90
2018-11-06T02:26:46.797Z,99.90
2018-11-06T02:29:15.323Z,99.90
2018-11-06T02:31:43.513Z,99.90
2018-11-06T02:34:11.695Z,99.90
2018-11-06T02:36:39.883Z,99.90
2018-11-06T02:39:09.025Z,99.90
2018-11-06T02:41:37.219Z,99.90
2018-11-06T02:44:05.436Z,99.90
2018-11-06T02:46:33.647Z,99.90
2018-11-06T02:49:01.892Z,99.90
2018-11-06T02:51:30.090Z,99.90
2018-11-06T02:53:58.275Z,99.90
2018-11-06T02:56:26.577Z,99.90
2018-11-06T02:58:54.767Z,99.90
2018-11-06T03:01:22.965Z,99.90
2018-11-06T03:03:51.188Z,99.90
2018-11-06T03:06:19.395Z,99.90
2018-11-06T03:08:47.579Z,99.90
2018-11-06T03:11:16.035Z,99.90
2018-11-06T03:13:44.231Z,99.90
2018-11-06T03:16:12.440Z,99.90
2018-11-06T03:18:40.640Z,99.90
2018-11-06T03:21:08.871Z,99.90
2018-11-06T03:23:37.075Z,99.90
2018-11-06T03:26:05.426Z,99.90
2018-11-06T03:28:33.632Z,99.90
2018-11-06T03:31:01.827Z,99.90
2018-11-06T03:33:30.307Z,99.90
2018-11-06T03:35:58.495Z,99.90
2018-11-06T03:38:26.675Z,99.90
2018-11-06T03:40:54.956Z,99.90
2018-11-06T03:43:23.138Z,99.90
2018-11-06T03:45:51.324Z,99.90
2018-11-06T03:48:19.535Z,99.90
2018-11-06T03:50:47.743Z,99.90
2018-11-06T03:53:15.942Z,99.90
2018-11-06T03:55:44.176Z,99.90
2018-11-06T03:58:12.375Z,99.90
2018-11-06T04:00:40.582Z,99.90
2018-11-06T04:03:08.822Z,99.90
2018-11-06T04:05:37.029Z,99.90
2018-11-06T04:08:05.731Z,99.90
2018-11-06T04:10:33.928Z,99.90
2018-11-06T04:13:02.112Z,99.90
2018-11-06T04:15:30.372Z,99.90
2018-11-06T04:17:58.563Z,99.90
2018-11-06T04:20:26.772Z,99.90
2018-11-06T04:22:54.963Z,99.90
2018-11-06T04:25:23.179Z,99.90
2018-11-06T04:27:51.359Z,99.90
2018-11-06T04:30:19.551Z,99.90
2018-11-06T04:32:47.771Z,99.90
2018-11-06T04:35:15.984Z,99.90
2018-11-06T04:37:44.295Z,99.90
2018-11-06T04:40:13.840Z,99.90
2018-11-06T04:42:42.139Z,99.90
2018-11-06T04:45:11.347Z,99.90
2018-11-06T04:47:39.546Z,99.90
2018-11-06T04:50:09.100Z,99.90
2018-11-06T04:52:37.284Z,99.90
2018-11-06T04:55:06.923Z,99.90
2018-11-06T04:57:35.172Z,99.90
2018-11-06T05:00:03.425Z,99.90
2018-11-06T05:02:31.624Z,99.90
2018-11-06T05:04:59.815Z,99.90
2018-11-06T05:07:28.048Z,99.90
2018-11-06T05:09:56.259Z,99.90
2018-11-06T05:12:24.507Z,99.90
2018-11-06T05:14:52.704Z,99.90
2018-11-06T05:17:20.913Z,99.90
2018-11-06T05:19:49.129Z,99.90
2018-11-06T05:22:17.357Z,99.90
2018-11-06T05:24:45.551Z,99.90
2018-11-06T05:27:13.795Z,99.90
2018-11-06T05:29:42.119Z,99.90
2018-11-06T05:32:10.306Z,99.90
2018-11-06T05:34:38.553Z,99.90
2018-11-06T05:37:06.716Z,99.90
2018-11-06T05:39:35.757Z,99.90
2018-11-06T05:42:04.143Z,99.90
2018-11-06T05:44:32.380Z,99.90
2018-11-06T05:47:00.567Z,99.90
2018-11-06T05:49:28.808Z,99.90
2018-11-06T05:51:56.988Z,99.90
2018-11-06T05:54:25.206Z,99.90
2018-11-06T05:56:53.416Z,99.90
2018-11-06T05:59:21.672Z,99.90
2018-11-06T06:01:49.872Z,99.90
2018-11-06T06:04:18.575Z,99.90
2018-11-06T06:06:46.779Z,99.90
2018-11-06T06:09:15.004Z,99.90
2018-11-06T06:11:43.224Z,99.90
2018-11-06T06:14:11.402Z,99.90
2018-11-06T06:16:39.639Z,99.90
2018-11-06T06:19:07.825Z,99.90
2018-11-06T06:21:36.028Z,99.90
2018-11-06T06:24:04.245Z,99.90
2018-11-06T06:26:32.447Z,99.90
2018-11-06T06:29:00.908Z,99.90
2018-11-06T06:31:29.145Z,99.90
2018-11-06T06:33:57.348Z,99.90
2018-11-06T06:36:25.545Z,99.90
2018-11-06T06:38:53.803Z,99.90
2018-11-06T06:41:22.220Z,99.90
2018-11-06T06:43:50.516Z,99.90
2018-11-06T06:46:18.739Z,99.90
2018-11-06T06:48:46.964Z,99.90
2018-11-06T06:51:15.172Z,99.90
2018-11-06T06:53:44.319Z,99.90
2018-11-06T06:56:12.552Z,99.90
2018-11-06T06:58:40.758Z,99.90
2018-11-06T07:01:08.990Z,99.90
2018-11-06T07:03:37.187Z,99.90
2018-11-06T07:06:05.415Z,99.90
2018-11-06T07:08:33.999Z,99.90
2018-11-06T07:11:02.186Z,99.90
2018-11-06T07:13:30.391Z,99.90
2018-11-06T07:15:58.632Z,99.90
2018-11-06T07:18:26.864Z,99.90
2018-11-06T07:20:55.044Z,99.90
2018-11-06T07:23:23.280Z,99.90
2018-11-06T07:25:51.495Z,99.90
2018-11-06T07:28:19.716Z,99.90
2018-11-06T07:30:47.915Z,99.90
2018-11-06T07:33:16.130Z,99.90
2018-11-06T07:35:44.536Z,99.90
2018-11-06T07:38:12.578Z,99.90
2018-11-06T07:40:40.830Z,99.90
2018-11-06T07:43:09.007Z,99.90
2018-11-06T07:45:37.207Z,99.90
2018-11-06T07:48:05.453Z,99.90
2018-11-06T07:50:33.692Z,99.90
2018-11-06T07:53:02.185Z,99.90
2018-11-06T07:55:30.428Z,99.90
2018-11-06T07:57:58.567Z,99.90
2018-11-06T08:00:26.996Z,99.90
2018-11-06T08:02:55.184Z,99.90
2018-11-06T08:05:23.388Z,99.90
2018-11-06T08:07:52.068Z,99.90
2018-11-06T08:10:20.317Z,99.90
2018-11-06T08:12:50.335Z,99.90
2018-11-06T08:15:18.540Z,99.90
2018-11-06T08:17:46.993Z,99.90
2018-11-06T08:20:15.360Z,99.90
2018-11-06T08:22:43.591Z,99.90
2018-11-06T08:25:13.192Z,99.90
2018-11-06T08:27:42.311Z,99.90
2018-11-06T08:30:10.934Z,99.90
2018-11-06T08:32:39.681Z,99.90
2018-11-06T08:35:09.387Z,99.90
2018-11-06T08:37:37.576Z,99.90
2018-11-06T08:40:06.988Z,99.90
2018-11-06T08:42:35.361Z,99.90
2018-11-06T08:45:03.940Z,99.90
2018-11-06T08:47:32.157Z,99.90
2018-11-06T08:50:00.379Z,99.90
2018-11-06T08:52:28.555Z,99.90
2018-11-06T08:54:56.780Z,99.90
2018-11-06T08:57:24.978Z,99.90
2018-11-06T08:59:53.159Z,99.90
2018-11-06T09:02:21.397Z,99.90
2018-11-06T09:04:49.588Z,99.90
2018-11-06T09:07:18.088Z,99.90
2018-11-06T09:09:46.277Z,99.90
2018-11-06T09:12:14.481Z,99.90
2018-11-06T09:14:49.465Z,99.90
2018-11-06T09:17:17.691Z,99.90
2018-11-06T09:19:45.927Z,99.90
2018-11-06T09:22:14.145Z,99.90
2018-11-06T09:24:42.348Z,99.90
2018-11-06T09:27:10.539Z,99.90
2018-11-06T09:29:38.733Z,99.90
2018-11-06T09:32:07.095Z,99.90
2018-11-06T09:34:35.415Z,99.90
2018-11-06T09:37:03.593Z,99.90
2018-11-06T09:39:31.807Z,99.90
2018-11-06T09:42:00.305Z,99.90
2018-11-06T09:44:28.507Z,99.90
2018-11-06T09:46:56.724Z,99.90
2018-11-06T09:49:24.938Z,99.90
2018-11-06T09:51:53.210Z,99.90
2018-11-06T09:54:21.412Z,99.90
2018-11-06T09:56:49.640Z,99.90
2018-11-06T09:59:17.851Z,99.90
2018-11-06T10:01:46.235Z,99.90
2018-11-06T10:04:14.663Z,99.90
2018-11-06T10:06:43.047Z,99.90
2018-11-06T10:09:11.801Z,99.90
2018-11-06T10:11:40.217Z,99.90
2018-11-06T10:14:08.614Z,99.90
2018-11-06T10:16:37.244Z,99.90
2018-11-06T10:19:05.560Z,99.90
2018-11-06T10:21:33.771Z,99.90
2018-11-06T10:24:02.001Z,99.90
2018-11-06T10:26:30.522Z,99.90
2018-11-06T10:28:58.723Z,99.70
2018-11-06T10:31:26.944Z,99.40
2018-11-06T10:33:55.160Z,99.40
2018-11-06T10:36:23.362Z,98.80
2018-11-06T10:38:51.584Z,98.20
2018-11-06T10:41:19.771Z,98.00
2018-11-06T10:43:48.038Z,97.80
2018-11-06T10:46:16.236Z,97.40
2018-11-06T10:48:44.428Z,97.40
2018-11-06T10:51:12.679Z,97.30
2018-11-06T10:53:40.871Z,96.80
2018-11-06T10:56:09.206Z,96.70
2018-11-06T10:58:37.429Z,96.60
2018-11-06T11:01:11.365Z,96.60
2018-11-06T11:03:41.356Z,96.40
2018-11-06T11:06:09.565Z,96.20
2018-11-06T11:08:37.764Z,96.10
2018-11-06T11:11:05.987Z,95.80
2018-11-06T11:13:34.180Z,95.70
2018-11-06T11:16:02.367Z,95.60
2018-11-06T11:18:30.580Z,95.40
2018-11-06T11:20:58.799Z,95.30
2018-11-06T11:23:27.003Z,95.20
2018-11-06T11:25:55.209Z,95.00
2018-11-06T11:28:23.392Z,94.60
2018-11-06T11:30:51.596Z,94.40
2018-11-06T11:33:20.165Z,94.60
2018-11-06T11:35:48.384Z,94.40
2018-11-06T11:38:16.594Z,94.30
2018-11-06T11:40:44.811Z,94.20
2018-11-06T11:43:13.016Z,93.90
2018-11-06T11:45:41.244Z,93.70
2018-11-06T11:48:09.459Z,93.40
2018-11-06T11:50:37.663Z,93.20
2018-11-06T11:53:05.904Z,93.30
2018-11-06T11:55:34.101Z,93.10
2018-11-06T11:58:02.313Z,93.10
2018-11-06T12:00:30.527Z,92.90
2018-11-06T12:02:58.715Z,92.60
2018-11-06T12:05:26.963Z,92.40
2018-11-06T12:07:55.183Z,92.20
2018-11-06T12:10:23.379Z,92.20
2018-11-06T12:12:51.576Z,92.10
2018-11-06T12:15:19.788Z,92.00
2018-11-06T12:17:48.165Z,91.90
2018-11-06T12:20:16.759Z,91.70
2018-11-06T12:22:45.187Z,91.60
2018-11-06T12:25:14.085Z,91.50
2018-11-06T12:27:42.077Z,91.40
2018-11-06T12:30:12.432Z,91.20
2018-11-06T12:32:41.066Z,91.20
2018-11-06T12:35:10.086Z,91.20
2018-11-06T12:37:38.515Z,91.10
2018-11-06T12:40:07.640Z,91.00
2018-11-06T12:42:36.068Z,90.80
2018-11-06T12:45:04.773Z,90.70
2018-11-06T12:47:33.089Z,90.50
2018-11-06T12:50:01.582Z,90.50
2018-11-06T12:52:29.763Z,90.60
2018-11-06T12:54:57.967Z,90.50
2018-11-06T12:57:26.225Z,90.20
2018-11-06T12:59:54.466Z,90.00
2018-11-06T13:02:22.692Z,90.10
2018-11-06T13:04:50.884Z,90.00
2018-11-06T13:07:19.128Z,90.10
2018-11-06T13:09:47.376Z,89.60
2018-11-06T13:12:15.686Z,90.10
2018-11-06T13:14:43.887Z,90.10
2018-11-06T13:17:12.154Z,90.20
2018-11-06T13:19:40.348Z,90.30
2018-11-06T13:22:08.692Z,90.30
2018-11-06T13:24:36.891Z,90.50
2018-11-06T13:27:05.493Z,90.70
2018-11-06T13:29:33.810Z,90.80
2018-11-06T13:32:01.980Z,90.80
2018-11-06T13:34:30.204Z,90.60
2018-11-06T13:36:58.573Z,90.80
2018-11-06T13:39:26.748Z,91.00
2018-11-06T13:41:55.001Z,91.10
2018-11-06T13:44:23.459Z,91.30
2018-11-06T13:46:51.460Z,91.40
2018-11-06T13:49:19.668Z,91.50
2018-11-06T13:51:47.912Z,91.60
2018-11-06T13:54:16.108Z,91.70
2018-11-06T13:56:44.343Z,91.80
2018-11-06T13:59:12.556Z,91.90
2018-11-06T14:01:40.749Z,92.00
2018-11-06T14:04:08.985Z,92.10
2018-11-06T14:06:37.179Z,92.20
2018-11-06T14:09:07.191Z,92.30
2018-11-06T14:11:35.430Z,92.80
2018-11-06T14:14:03.639Z,92.50
2018-11-06T14:16:31.851Z,92.70
2018-11-06T14:19:00.207Z,92.70
2018-11-06T14:21:28.376Z,92.80
2018-11-06T14:23:56.564Z,92.90
2018-11-06T14:26:24.781Z,93.00
2018-11-06T14:28:52.983Z,93.10
2018-11-06T14:31:21.188Z,93.20
2018-11-06T14:33:49.408Z,93.30
2018-11-06T14:36:17.710Z,93.50
2018-11-06T14:38:45.895Z,93.70
2018-11-06T14:41:14.127Z,93.90
2018-11-06T14:43:42.323Z,94.10
2018-11-06T14:46:10.520Z,94.30
2018-11-06T14:48:39.018Z,94.40
2018-11-06T14:51:07.124Z,94.60
2018-11-06T14:53:35.342Z,94.80
2018-11-06T14:56:03.593Z,95.00
2018-11-06T14:58:31.767Z,95.20
2018-11-06T15:00:59.989Z,95.50
2018-11-06T15:03:28.219Z,95.80
2018-11-06T15:05:56.487Z,96.00
2018-11-06T15:08:24.696Z,96.30
2018-11-06T15:10:52.938Z,96.60
2018-11-06T15:13:21.156Z,96.90
2018-11-06T15:15:49.399Z,97.10
2018-11-06T15:18:17.728Z,97.40
2018-11-06T15:20:46.237Z,97.60
2018-11-06T15:23:14.420Z,97.90
2018-11-06T15:25:42.660Z,98.20
2018-11-06T15:28:10.912Z,98.50
2018-11-06T15:30:39.117Z,98.70
2018-11-06T15:33:07.325Z,99.00
2018-11-06T15:35:35.565Z,99.30
2018-11-06T15:38:03.792Z,99.50
2018-11-06T15:40:32.003Z,99.80
2018-11-06T15:43:00.216Z,99.90
2018-11-06T15:45:28.455Z,99.90
2018-11-06T15:47:56.711Z,99.90
2018-11-06T15:50:24.942Z,99.90
2018-11-06T15:52:53.163Z,99.90
2018-11-06T15:55:21.390Z,99.90
2018-11-06T15:57:49.588Z,99.90
2018-11-06T16:00:20.040Z,99.90
2018-11-06T16:02:48.497Z,99.90
2018-11-06T16:05:16.713Z,99.90
2018-11-06T16:07:45.066Z,99.90
2018-11-06T16:10:15.313Z,99.90
2018-11-06T16:12:44.031Z,99.90
2018-11-06T16:15:12.319Z,99.90
2018-11-06T16:17:40.546Z,99.90
2018-11-06T16:20:11.227Z,99.90
2018-11-06T16:22:39.751Z,99.90
2018-11-06T16:25:09.655Z,99.90
2018-11-06T16:27:38.281Z,99.90
2018-11-06T16:30:08.563Z,99.90
2018-11-06T16:32:36.944Z,99.90
2018-11-06T16:35:05.772Z,99.90
2018-11-06T16:37:34.015Z,99.90
2018-11-06T16:40:02.309Z,99.90
2018-11-06T16:42:30.545Z,99.90
2018-11-06T16:44:58.842Z,99.90
2018-11-06T16:47:27.091Z,99.90
2018-11-06T16:49:55.308Z,99.90
2018-11-06T16:52:23.555Z,99.90
2018-11-06T16:54:51.809Z,99.90
2018-11-06T16:57:20.428Z,99.90
2018-11-06T16:59:48.731Z,99.90
2018-11-06T17:02:16.876Z,99.90
2018-11-06T17:04:45.068Z,99.90
2018-11-06T17:07:13.384Z,99.90
2018-11-06T17:09:41.653Z,99.90
2018-11-06T17:12:09.836Z,99.90
2018-11-06T17:14:38.058Z,99.90
2018-11-06T17:17:06.528Z,99.90
2018-11-06T17:19:34.888Z,99.90
2018-11-06T17:22:03.082Z,99.90
2018-11-06T17:24:31.312Z,99.90
2018-11-06T17:26:59.532Z,99.90
2018-11-06T17:29:27.796Z,99.90
2018-11-06T17:31:55.983Z,99.90
2018-11-06T17:34:24.556Z,99.90
2018-11-06T17:36:52.800Z,99.90
2018-11-06T17:39:21.095Z,99.90
2018-11-06T17:41:49.252Z,99.90
2018-11-06T17:44:17.491Z,99.90
2018-11-06T17:46:45.699Z,99.90
2018-11-06T17:49:13.917Z,99.90
2018-11-06T17:51:42.121Z,99.90
2018-11-06T17:54:10.321Z,99.90
2018-11-06T17:56:38.625Z,99.90
2018-11-06T17:59:06.951Z,99.90
2018-11-06T18:01:35.202Z,99.90
2018-11-06T18:04:03.677Z,99.90
2018-11-06T18:06:31.919Z,99.90
2018-11-06T18:09:00.104Z,99.90
2018-11-06T18:11:28.372Z,99.90
2018-11-06T18:13:56.579Z,99.90
2018-11-06T18:16:24.857Z,99.90
2018-11-06T18:18:53.064Z,99.90
2018-11-06T18:21:21.392Z,99.90
2018-11-06T18:23:49.591Z,99.90
2018-11-06T18:26:17.796Z,99.90
2018-11-06T18:28:46.028Z,99.90
2018-11-06T18:31:14.239Z,99.90
2018-11-06T18:33:42.688Z,99.90
2018-11-06T18:36:11.012Z,99.90
2018-11-06T18:38:39.248Z,99.90
2018-11-06T18:41:07.492Z,99.90
2018-11-06T18:43:35.741Z,99.90
2018-11-06T18:46:03.941Z,99.90
2018-11-06T18:48:32.175Z,99.90
2018-11-06T18:51:00.640Z,99.90
2018-11-06T18:53:28.875Z,99.90
2018-11-06T18:55:57.039Z,99.90
2018-11-06T18:58:25.312Z,99.90
2018-11-06T19:00:53.484Z,99.90
2018-11-06T19:03:21.672Z,99.90
2018-11-06T19:05:49.904Z,99.90
2018-11-06T19:08:18.106Z,99.90
2018-11-06T19:10:46.378Z,99.90
2018-11-06T19:13:14.596Z,99.90
2018-11-06T19:15:42.852Z,99.90
2018-11-06T19:18:11.068Z,99.90
2018-11-06T19:20:39.283Z,99.90
2018-11-06T19:23:07.857Z,99.90
2018-11-06T19:25:36.073Z,99.90
2018-11-06T19:28:06.104Z,99.90
2018-11-06T19:30:34.399Z,99.90
2018-11-06T19:33:02.523Z,99.90
2018-11-06T19:35:30.744Z,99.90
2018-11-06T19:37:58.958Z,99.90
2018-11-06T19:40:27.227Z,99.90
2018-11-06T19:42:55.432Z,99.90
2018-11-06T19:45:23.690Z,99.90
2018-11-06T19:47:51.936Z,99.90
2018-11-06T19:50:20.405Z,99.90
2018-11-06T19:52:48.718Z,99.90
2018-11-06T19:55:17.718Z,99.90
2018-11-06T19:57:45.920Z,99.90
2018-11-06T20:00:17.507Z,99.90
2018-11-06T20:02:47.171Z,99.90
2018-11-06T20:05:15.836Z,99.90
2018-11-06T20:07:44.803Z,99.90
2018-11-06T20:10:14.550Z,99.90
2018-11-06T20:12:44.892Z,99.90
2018-11-06T20:15:15.635Z,99.90
2018-11-06T20:17:45.183Z,99.90
2018-11-06T20:20:21.835Z,99.90
2018-11-06T20:22:50.830Z,99.90
2018-11-06T20:25:20.002Z,99.90
2018-11-06T20:27:49.433Z,99.90
2018-11-06T20:30:19.402Z,99.90
2018-11-06T20:32:47.731Z,99.90
2018-11-06T20:35:16.361Z,99.90
2018-11-06T20:37:45.091Z,99.90
2018-11-06T20:40:15.957Z,99.90
2018-11-06T20:42:44.834Z,99.90
2018-11-06T20:45:14.483Z,99.90
2018-11-06T20:47:43.513Z,99.90
2018-11-06T20:50:13.897Z,99.90
2018-11-06T20:52:42.497Z,99.90
2018-11-06T20:55:12.381Z,99.90
2018-11-06T20:57:40.583Z,99.90
2018-11-06T21:00:15.021Z,99.90
2018-11-06T21:02:43.452Z,99.90
2018-11-06T21:05:12.721Z,99.90
2018-11-06T21:07:41.016Z,99.90
2018-11-06T21:10:09.240Z,99.90
2018-11-06T21:12:37.456Z,99.90
2018-11-06T21:15:06.555Z,99.90
2018-11-06T21:17:34.792Z,99.90
2018-11-06T21:20:03.113Z,99.90
2018-11-06T21:22:31.292Z,99.90
2018-11-06T21:24:59.506Z,99.90
2018-11-06T21:27:27.813Z,99.90
2018-11-06T21:29:56.448Z,99.90
2018-11-06T21:32:24.652Z,99.90
2018-11-06T21:34:52.875Z,99.90
2018-11-06T21:37:21.131Z,99.90
2018-11-06T21:39:49.347Z,99.90
2018-11-06T21:42:17.607Z,99.90
2018-11-06T21:44:45.872Z,99.90
2018-11-06T21:47:14.079Z,99.90
2018-11-06T21:49:42.551Z,99.90
2018-11-06T21:52:10.826Z,99.90
2018-11-06T21:54:39.061Z,99.90
2018-11-06T21:57:07.247Z,99.90
2018-11-06T21:59:35.492Z,99.90
2018-11-06T22:02:03.844Z,99.90
2018-11-06T22:04:32.051Z,99.90
2018-11-06T22:07:00.269Z,99.90
2018-11-06T22:09:28.575Z,99.90
2018-11-06T22:11:56.820Z,99.90
2018-11-06T22:14:25.216Z,99.90
2018-11-06T22:16:53.424Z,99.90
2018-11-06T22:19:21.644Z,99.90
2018-11-06T22:21:49.923Z,99.90
2018-11-06T22:24:18.107Z,99.90
2018-11-06T22:26:46.307Z,99.90
2018-11-06T22:29:14.791Z,99.90
2018-11-06T22:31:43.038Z,99.90
2018-11-06T22:34:11.188Z,99.90
2018-11-06T22:36:39.387Z,99.90
2018-11-06T22:39:08.883Z,99.90
2018-11-06T22:41:37.301Z,99.90
2018-11-06T22:44:05.666Z,99.90
2018-11-06T22:46:33.852Z,99.90
2018-11-06T22:49:02.101Z,99.90
2018-11-06T22:51:30.348Z,99.90
2018-11-06T22:53:58.660Z,99.90
2018-11-06T22:56:26.899Z,99.90
2018-11-06T22:58:55.199Z,99.90
2018-11-06T23:01:24.432Z,99.90
2018-11-06T23:03:53.308Z,99.90
2018-11-06T23:06:21.760Z,99.90
2018-11-06T23:08:49.804Z,99.90
2018-11-06T23:11:18.009Z,99.90
2018-11-06T23:13:46.239Z,99.90
2018-11-06T23:16:14.460Z,99.90
2018-11-06T23:18:42.668Z,99.90
2018-11-06T23:21:10.863Z,99.90
2018-11-06T23:23:39.064Z,99.90
2018-11-06T23:26:07.288Z,99.90
2018-11-06T23:28:35.475Z,99.90
2018-11-06T23:31:03.947Z,99.90
2018-11-06T23:33:32.215Z,99.90
2018-11-06T23:36:00.444Z,99.90
2018-11-06T23:38:28.658Z,99.90
2018-11-06T23:40:56.856Z,99.90
2018-11-06T23:43:25.060Z,99.90
2018-11-06T23:45:53.274Z,99.90
2018-11-06T23:48:21.473Z,99.90
2018-11-06T23:50:49.666Z,99.90
2018-11-06T23:53:17.860Z,99.90
2018-11-06T23:55:46.407Z,99.90
2018-11-06T23:58:14.634Z,99.90
